sensor_id;sensor_type;location;lat;lon;timestamp;P1;durP1;ratioP1;P2;durP2;ratioP2
46457;SDS011;32155;54.076;12.092;2023-04-24T12:37:41;1.40;;;1.02;;
46457;SDS011;32155;54.076;12.092;2023-04-24T14:38:14;7.85;;;3.50;;
46457;SDS011;32155;54.076;12.092;2023-04-24T14:40:40;5.85;;;3.45;;
46457;SDS011;32155;54.076;12.092;2023-04-24T14:43:08;3.90;;;3.45;;
46457;SDS011;32155;54.076;12.092;2023-04-24T14:45:33;4.13;;;3.40;;
46457;SDS011;32155;54.076;12.092;2023-04-24T14:47:59;4.25;;;3.83;;
46457;SDS011;32155;54.076;12.092;2023-04-24T14:50:25;4.43;;;3.67;;
46457;SDS011;32155;54.076;12.092;2023-04-24T14:52:53;4.03;;;3.30;;
46457;SDS011;32155;54.076;12.092;2023-04-24T14:55:20;5.25;;;3.90;;
46457;SDS011;32155;54.076;12.092;2023-04-24T14:57:51;5.30;;;3.80;;
46457;SDS011;32155;54.076;12.092;2023-04-24T15:00:17;4.80;;;4.18;;
46457;SDS011;32155;54.076;12.092;2023-04-24T15:02:43;5.63;;;4.72;;
46457;SDS011;32155;54.076;12.092;2023-04-24T15:05:09;5.53;;;3.42;;
46457;SDS011;32155;54.076;12.092;2023-04-24T15:07:35;10.45;;;3.65;;
46457;SDS011;32155;54.076;12.092;2023-04-24T15:10:01;4.82;;;3.20;;
46457;SDS011;32155;54.076;12.092;2023-04-24T15:12:27;4.43;;;3.45;;
46457;SDS011;32155;54.076;12.092;2023-04-24T15:14:59;5.78;;;3.60;;
46457;SDS011;32155;54.076;12.092;2023-04-24T15:17:26;4.15;;;3.50;;
46457;SDS011;32155;54.076;12.092;2023-04-24T15:19:52;3.67;;;2.90;;
46457;SDS011;32155;54.076;12.092;2023-04-24T15:24:44;3.92;;;2.30;;
46457;SDS011;32155;54.076;12.092;2023-04-24T15:27:09;3.05;;;2.35;;
46457;SDS011;32155;54.076;12.092;2023-04-24T15:29:36;3.70;;;2.65;;
46457;SDS011;32155;54.076;12.092;2023-04-24T15:32:02;5.90;;;2.70;;
46457;SDS011;32155;54.076;12.092;2023-04-24T15:34:31;3.38;;;2.00;;
46457;SDS011;32155;54.076;12.092;2023-04-24T18:01:57;2.60;;;2.35;;
46457;SDS011;32155;54.076;12.092;2023-04-24T18:25:01;2.95;;;2.28;;
46457;SDS011;32155;54.076;12.092;2023-04-24T18:37:55;4.03;;;1.73;;
46457;SDS011;32155;54.076;12.092;2023-04-24T18:40:21;2.40;;;1.90;;
46457;SDS011;32155;54.076;12.092;2023-04-24T18:42:52;1.75;;;1.52;;
46457;SDS011;32155;54.076;12.092;2023-04-24T18:45:21;1.70;;;1.55;;
46457;SDS011;32155;54.076;12.092;2023-04-24T18:47:46;2.00;;;1.65;;
46457;SDS011;32155;54.076;12.092;2023-04-24T18:50:13;2.67;;;2.20;;
46457;SDS011;32155;54.076;12.092;2023-04-24T18:52:42;2.25;;;2.05;;
46457;SDS011;32155;54.076;12.092;2023-04-24T19:03:28;3.75;;;2.92;;
46457;SDS011;32155;54.076;12.092;2023-04-24T19:17:58;7.40;;;4.13;;
46457;SDS011;32155;54.076;12.092;2023-04-24T19:23:55;5.45;;;3.90;;
46457;SDS011;32155;54.076;12.092;2023-04-24T19:46:51;4.53;;;2.50;;
46457;SDS011;32155;54.076;12.092;2023-04-24T19:49:49;4.07;;;3.10;;
46457;SDS011;32155;54.076;12.092;2023-04-24T19:52:15;6.45;;;2.70;;
46457;SDS011;32155;54.076;12.092;2023-04-24T19:55:48;4.22;;;2.60;;
46457;SDS011;32155;54.076;12.092;2023-04-24T19:58:13;4.45;;;2.35;;
46457;SDS011;32155;54.076;12.092;2023-04-24T20:00:54;3.95;;;2.25;;
46457;SDS011;32155;54.076;12.092;2023-04-24T20:13:12;6.15;;;2.38;;
46457;SDS011;32155;54.076;12.092;2023-04-24T20:18:06;5.57;;;2.75;;
46457;SDS011;32155;54.076;12.092;2023-04-24T20:20:34;6.50;;;2.80;;
46457;SDS011;32155;54.076;12.092;2023-04-24T20:23:05;5.60;;;3.10;;
46457;SDS011;32155;54.076;12.092;2023-04-24T20:25:44;8.95;;;3.40;;
46457;SDS011;32155;54.076;12.092;2023-04-24T20:28:16;5.97;;;3.20;;
46457;SDS011;32155;54.076;12.092;2023-04-24T20:56:35;7.22;;;4.13;;
46457;SDS011;32155;54.076;12.092;2023-04-24T20:59:00;6.25;;;4.00;;
46457;SDS011;32155;54.076;12.092;2023-04-24T21:09:12;7.30;;;4.38;;
46457;SDS011;32155;54.076;12.092;2023-04-24T21:11:55;8.90;;;4.15;;
46457;SDS011;32155;54.076;12.092;2023-04-24T21:14:56;9.82;;;4.22;;
46457;SDS011;32155;54.076;12.092;2023-04-24T21:17:31;7.65;;;4.45;;
46457;SDS011;32155;54.076;12.092;2023-04-24T21:23:51;8.52;;;4.68;;
46457;SDS011;32155;54.076;12.092;2023-04-24T21:30:16;11.02;;;5.40;;
46457;SDS011;32155;54.076;12.092;2023-04-24T21:38:11;11.40;;;6.20;;
46457;SDS011;32155;54.076;12.092;2023-04-24T21:40:37;9.65;;;5.47;;
46457;SDS011;32155;54.076;12.092;2023-04-24T21:43:12;9.55;;;5.78;;
46457;SDS011;32155;54.076;12.092;2023-04-24T22:56:04;7.47;;;4.00;;
46457;SDS011;32155;54.076;12.092;2023-04-24T23:02:12;10.13;;;3.80;;
46457;SDS011;32155;54.076;12.092;2023-04-24T23:04:38;8.25;;;3.70;;
46457;SDS011;32155;54.076;12.092;2023-04-24T23:07:34;7.10;;;3.30;;
46457;SDS011;32155;54.076;12.092;2023-04-24T23:10:04;6.55;;;3.47;;
46457;SDS011;32155;54.076;12.092;2023-04-24T23:18:14;6.13;;;3.10;;
46457;SDS011;32155;54.076;12.092;2023-04-24T23:20:40;8.75;;;3.63;;
46457;SDS011;32155;54.076;12.092;2023-04-24T23:23:15;7.18;;;3.42;;
46457;SDS011;32155;54.076;12.092;2023-04-24T23:25:44;9.02;;;4.38;;
46457;SDS011;32155;54.076;12.092;2023-04-24T23:28:18;11.18;;;4.28;;
46457;SDS011;32155;54.076;12.092;2023-04-24T23:30:54;8.10;;;4.85;;
46457;SDS011;32155;54.076;12.092;2023-04-24T23:33:28;11.02;;;4.57;;
46457;SDS011;32155;54.076;12.092;2023-04-24T23:36:05;7.90;;;5.03;;
46457;SDS011;32155;54.076;12.092;2023-04-24T23:45:36;6.53;;;4.50;;
46457;SDS011;32155;54.076;12.092;2023-04-24T23:48:05;7.60;;;4.63;;
46457;SDS011;32155;54.076;12.092;2023-04-24T23:50:44;9.27;;;4.68;;
46457;SDS011;32155;54.076;12.092;2023-04-24T23:53:18;7.43;;;4.60;;
46457;SDS011;32155;54.076;12.092;2023-04-24T23:55:43;8.35;;;4.45;;
